VTSS/HDY METAR and TAF weather

Enter ICAO airport designator
Station Type Date Time Source
VTSS METAR 2021/09/20 04:00 UTC NOAA

VTSS 200400Z 24011KT 9999 FEW020 BKN100 30/23 Q1011 NOSIG


Station Type Date Time Source
VTSS Decoded METAR 2021/09/20 04:00 UTC NOAA

Hat Yai, Thailand (VTSS) 06-55N 100-26E 35M
Sep 20, 2021 - 12:00 AM EDT / 2021.09.20 0400 UTC
Wind: from the WSW (240 degrees) at 13 MPH (11 KT):0
Visibility: greater than 7 mile(s):0
Sky conditions: mostly cloudy
Temperature: 86 F (30 C)
Heat index: 93.4 F (34.1 C):1
Dew Point: 73 F (23 C)
Relative Humidity: 66%
Pressure (altimeter): 29.85 in. Hg (1011 hPa)
ob: VTSS 200400Z 24011KT 9999 FEW020 BKN100 30/23 Q1011 NOSIG
cycle: 4

Station Type Date Time Source
VTSS TAF 2021/09/19 18:36 UTC NOAA

TAF VTSS 191700Z 1918/2018 23004KT 9999 FEW020 BKN100
TEMPO 2005/2012 VRB15G25KT 4000 TSRA FEW016CB SCT018 BKN100

Example: see airport list